createdAt,value
2022-08-22T00:00:15.769Z,101485.16
2022-08-22T00:02:47.465Z,101433.78
2022-08-22T00:03:01.115Z,101499.81
2022-08-22T00:03:25.078Z,101478.72
2022-08-22T00:06:10.220Z,101480.84
2022-08-22T00:09:16.453Z,101481.72
2022-08-22T00:11:52.887Z,101473.84
2022-08-22T00:14:24.816Z,101479.47
2022-08-22T00:17:12.803Z,101484.59
2022-08-22T00:19:48.796Z,101484.50
2022-08-22T00:22:40.347Z,101495.00
2022-08-22T00:25:25.605Z,101483.38
2022-08-22T00:28:07.520Z,101486.66
2022-08-22T00:30:44.442Z,101481.91
2022-08-22T00:33:31.125Z,101487.81
2022-08-22T00:36:40.814Z,101495.00
2022-08-22T00:39:19.633Z,101489.19
2022-08-22T00:41:58.559Z,101487.59
2022-08-22T00:44:40.764Z,101471.31
2022-08-22T00:47:18.326Z,101488.16
2022-08-22T00:49:54.395Z,101489.06
2022-08-22T00:52:28.821Z,101480.19
2022-08-22T00:55:07.369Z,101472.91
2022-08-22T00:57:47.264Z,101468.38
2022-08-22T01:00:26.814Z,101473.84
2022-08-22T01:03:05.596Z,101477.41
2022-08-22T01:05:46.766Z,101478.78
2022-08-22T01:08:16.374Z,101476.53
2022-08-22T01:11:18.398Z,101459.66
2022-08-22T01:14:35.118Z,101458.69
2022-08-22T01:17:27.125Z,101462.44
2022-08-22T01:19:54.340Z,101459.16
2022-08-22T01:22:55.099Z,101450.56
2022-08-22T01:25:46.670Z,101450.81
2022-08-22T01:28:17.722Z,101460.06
2022-08-22T01:31:16.125Z,101458.41
2022-08-22T01:34:12.931Z,101457.16
2022-08-22T01:36:52.383Z,101458.28
2022-08-22T01:39:57.204Z,101454.44
2022-08-22T01:42:36.889Z,101458.97
2022-08-22T01:45:09.660Z,101464.91
2022-08-22T01:47:56.559Z,101472.84
2022-08-22T01:50:32.714Z,101455.72
2022-08-22T01:53:09.137Z,101438.16
2022-08-22T01:55:42.944Z,101445.31
2022-08-22T01:58:30.379Z,101446.69
2022-08-22T02:01:03.086Z,101446.97
2022-08-22T02:04:02.936Z,101450.13
2022-08-22T02:06:43.096Z,101453.50
2022-08-22T02:09:33.658Z,101449.19
2022-08-22T02:12:21.683Z,101445.00
2022-08-22T02:15:15.117Z,101443.72
2022-08-22T02:18:06.925Z,101441.91
2022-08-22T02:20:40.553Z,101439.50
2022-08-22T02:23:28.058Z,101438.84
2022-08-22T02:26:04.224Z,101440.69
2022-08-22T02:28:58.138Z,101442.81
2022-08-22T02:31:37.859Z,101432.44
2022-08-22T02:34:37.458Z,101429.72
2022-08-22T02:37:13.641Z,101417.97
2022-08-22T02:39:49.815Z,101415.09
2022-08-22T02:42:33.083Z,101422.38
2022-08-22T02:45:11.782Z,101410.72
2022-08-22T02:47:50.245Z,101412.41
2022-08-22T02:50:25.488Z,101409.47
2022-08-22T02:53:21.090Z,101404.34
2022-08-22T02:55:57.132Z,101402.28
2022-08-22T02:58:57.000Z,101396.03
2022-08-22T03:01:32.030Z,101394.34
2022-08-22T03:04:38.118Z,101400.81
2022-08-22T03:07:12.301Z,101381.44
2022-08-22T03:09:49.996Z,101383.53
2022-08-22T03:12:29.899Z,101376.97
2022-08-22T03:14:57.127Z,101383.53
2022-08-22T03:17:31.759Z,101379.88
2022-08-22T03:20:10.171Z,101383.31
2022-08-22T03:22:39.801Z,101379.78
2022-08-22T03:25:09.665Z,101374.44
2022-08-22T03:27:47.124Z,101367.47
2022-08-22T03:30:21.668Z,101372.50
2022-08-22T03:32:59.574Z,101385.28
2022-08-22T03:35:39.151Z,101373.75
2022-08-22T03:38:24.356Z,101374.81
2022-08-22T03:41:19.157Z,101375.44
2022-08-22T03:44:15.152Z,101374.47
2022-08-22T03:47:09.766Z,101377.97
2022-08-22T03:49:42.661Z,101386.84
2022-08-22T03:52:19.500Z,101392.44
2022-08-22T03:54:52.279Z,101398.38
2022-08-22T03:57:36.677Z,101397.38
2022-08-22T04:00:52.478Z,101397.88
2022-08-22T04:03:26.511Z,101416.59
2022-08-22T04:06:22.640Z,101414.22
2022-08-22T04:09:03.240Z,101402.09
2022-08-22T04:11:51.092Z,101404.63
2022-08-22T04:14:38.427Z,101419.56
2022-08-22T04:17:34.074Z,101419.16
2022-08-22T04:20:21.390Z,101426.25
2022-08-22T04:22:51.173Z,101434.00
2022-08-22T04:25:23.785Z,101439.56
2022-08-22T04:28:08.846Z,101446.31
2022-08-22T04:30:44.326Z,101439.56
2022-08-22T04:33:21.344Z,101450.28
2022-08-22T04:36:15.762Z,101461.47
2022-08-22T05:10:14.895Z,101450.22
2022-08-22T05:16:40.233Z,101447.59
2022-08-22T05:19:27.092Z,101453.00
2022-08-22T05:21:57.403Z,101455.81
2022-08-22T05:24:32.381Z,101462.72
2022-08-22T05:27:15.744Z,101468.22
2022-08-22T05:29:46.620Z,101471.16
2022-08-22T05:32:25.849Z,101464.00
2022-08-22T05:34:59.254Z,101459.78
2022-08-22T05:37:40.798Z,101472.56
2022-08-22T05:40:11.230Z,101467.75
2022-08-22T05:42:38.365Z,101478.19
2022-08-22T05:45:11.513Z,101490.22
2022-08-22T05:47:47.320Z,101493.44
2022-08-22T05:50:36.340Z,101485.09
2022-08-22T05:53:19.522Z,101480.31
2022-08-22T05:56:02.851Z,101482.25
2022-08-22T05:58:38.839Z,101488.28
2022-08-22T06:01:05.811Z,101485.09
2022-08-22T06:04:15.229Z,101495.69
2022-08-22T06:07:02.717Z,101496.97
2022-08-22T06:09:48.105Z,101500.72
2022-08-22T06:12:22.287Z,101510.81
2022-08-22T06:15:23.181Z,101513.31
2022-08-22T06:17:57.834Z,101526.28
2022-08-22T06:20:49.557Z,101521.72
2022-08-22T06:23:32.916Z,101534.47
2022-08-22T06:26:01.439Z,101537.84
2022-08-22T06:28:54.801Z,101545.13
2022-08-22T06:31:38.243Z,101550.34
2022-08-22T06:34:13.251Z,101554.56
2022-08-22T06:36:44.758Z,101568.53
2022-08-22T06:39:11.680Z,101575.09
2022-08-22T06:42:21.537Z,101566.94
2022-08-22T06:45:00.887Z,101574.31
2022-08-22T06:47:33.561Z,101579.41
2022-08-22T06:50:06.102Z,101574.63
2022-08-22T06:52:51.536Z,101588.19
2022-08-22T06:55:19.295Z,101584.69
2022-08-22T06:57:55.558Z,101593.19
2022-08-22T07:00:23.745Z,101596.47
2022-08-22T07:02:59.133Z,101601.56
2022-08-22T07:05:36.073Z,101609.91
2022-08-22T07:08:09.146Z,101620.09
2022-08-22T07:10:39.785Z,101615.16
2022-08-22T07:13:08.357Z,101623.63
2022-08-22T07:15:37.341Z,101629.91
2022-08-22T07:18:09.800Z,101629.03
2022-08-22T07:20:45.128Z,101631.91
2022-08-22T07:23:36.183Z,101634.56
2022-08-22T07:26:20.747Z,101624.81
2022-08-22T07:28:58.716Z,101639.16
2022-08-22T07:31:34.744Z,101646.09
2022-08-22T07:34:26.455Z,101647.84
2022-08-22T07:37:14.765Z,101650.38
2022-08-22T07:40:00.671Z,101652.38
2022-08-22T07:42:46.507Z,101659.94
2022-08-22T07:45:22.897Z,101666.00
2022-08-22T07:48:25.431Z,101666.13
2022-08-22T07:50:58.878Z,101664.59
2022-08-22T07:53:26.075Z,101666.22
2022-08-22T07:55:55.645Z,101669.44
2022-08-22T07:58:25.676Z,101670.50
2022-08-22T08:00:54.237Z,101664.38
2022-08-22T08:03:24.148Z,101668.59
2022-08-22T08:05:51.858Z,101660.19
2022-08-22T08:08:31.544Z,101666.19
2022-08-22T08:11:00.392Z,101669.38
2022-08-22T08:13:35.399Z,101672.09
2022-08-22T08:16:06.541Z,101675.81
2022-08-22T08:18:35.843Z,101669.53
2022-08-22T08:21:06.940Z,101670.75
2022-08-22T08:23:42.773Z,101674.31
2022-08-22T08:26:17.425Z,101670.66
2022-08-22T08:28:49.226Z,101667.13
2022-08-22T08:31:25.438Z,101658.97
2022-08-22T08:34:05.110Z,101659.13
2022-08-22T08:36:50.590Z,101671.66
2022-08-22T08:39:35.442Z,101665.84
2022-08-22T08:42:33.857Z,101665.84
2022-08-22T08:45:18.700Z,101674.59
2022-08-22T08:47:54.074Z,101674.66
2022-08-22T08:50:58.571Z,101677.88
2022-08-22T08:53:53.133Z,101671.56
2022-08-22T08:59:49.035Z,101673.56
2022-08-22T09:02:46.698Z,101670.84
2022-08-22T09:05:29.885Z,101667.72
2022-08-22T09:08:38.314Z,101661.47
2022-08-22T09:11:39.239Z,101670.66
2022-08-22T09:14:26.672Z,101664.00
2022-08-22T09:17:17.166Z,101665.47
2022-08-22T09:19:54.280Z,101668.63
2022-08-22T09:22:35.127Z,101661.16
2022-08-22T09:25:41.279Z,101658.84
2022-08-22T09:28:08.221Z,101654.25
2022-08-22T09:30:58.119Z,101660.28
2022-08-22T09:33:37.654Z,101653.63
2022-08-22T09:36:20.697Z,101651.66
2022-08-22T09:39:03.822Z,101652.50
2022-08-22T09:41:51.766Z,101650.94
2022-08-22T09:44:31.151Z,101653.72
2022-08-22T09:47:24.927Z,101653.34
2022-08-22T09:50:00.849Z,101649.81
2022-08-22T09:52:53.871Z,101650.22
2022-08-22T09:55:35.926Z,101646.25
2022-08-22T09:58:14.561Z,101641.84
2022-08-22T10:00:57.007Z,101645.47
2022-08-22T10:04:03.653Z,101639.19
2022-08-22T10:06:44.701Z,101637.97
2022-08-22T10:09:25.213Z,101641.53
2022-08-22T10:12:12.785Z,101639.56
2022-08-22T10:15:07.858Z,101632.81
2022-08-22T10:17:46.307Z,101637.56
2022-08-22T10:20:23.234Z,101626.44
2022-08-22T10:22:56.112Z,101623.63
2022-08-22T10:25:42.117Z,101628.38
2022-08-22T10:28:10.547Z,101627.69
2022-08-22T10:31:09.992Z,101616.63
2022-08-22T10:33:46.078Z,101624.53
2022-08-22T10:36:20.440Z,101612.06
2022-08-22T10:38:53.336Z,101619.34
2022-08-22T10:41:36.430Z,101611.28
2022-08-22T10:44:27.445Z,101611.66
2022-08-22T10:47:01.304Z,101605.59
2022-08-22T10:49:33.723Z,101602.66
2022-08-22T10:52:17.278Z,101609.44
2022-08-22T10:54:53.178Z,101613.88
2022-08-22T10:57:41.491Z,101607.03
2022-08-22T11:00:13.397Z,101598.88
2022-08-22T11:02:53.309Z,101600.66
2022-08-22T11:05:20.542Z,101606.81
2022-08-22T11:08:01.833Z,101602.38
2022-08-22T11:11:14.099Z,101597.53
2022-08-22T11:14:09.060Z,101603.78
2022-08-22T11:16:44.260Z,101584.25
2022-08-22T11:19:32.953Z,101602.63
2022-08-22T11:22:34.310Z,101597.97
2022-08-22T11:25:35.732Z,101605.78
2022-08-22T11:28:45.849Z,101591.94
2022-08-22T11:31:36.672Z,101591.38
2022-08-22T11:34:23.753Z,101590.03
2022-08-22T11:37:11.683Z,101590.59
2022-08-22T11:40:12.054Z,101584.81
2022-08-22T11:42:51.243Z,101595.59
2022-08-22T11:45:25.017Z,101585.41
2022-08-22T11:48:02.536Z,101579.94
2022-08-22T11:50:42.382Z,101582.25
2022-08-22T11:53:22.836Z,101573.19
2022-08-22T11:55:59.394Z,101577.16
2022-08-22T11:58:38.844Z,101569.56
2022-08-22T12:01:11.823Z,101581.72
2022-08-22T12:03:59.423Z,101575.88
2022-08-22T12:06:50.624Z,101569.41
2022-08-22T12:09:24.203Z,101570.16
2022-08-22T12:11:58.685Z,101572.34
2022-08-22T12:14:36.326Z,101560.44
2022-08-22T12:17:18.977Z,101558.44
2022-08-22T12:20:16.437Z,101550.47
2022-08-22T12:22:49.811Z,101554.09
2022-08-22T12:25:32.709Z,101552.94
2022-08-22T12:28:17.787Z,101558.84
2022-08-22T12:31:01.902Z,101551.53
2022-08-22T12:33:34.768Z,101552.56
2022-08-22T12:36:18.292Z,101541.84
2022-08-22T12:39:04.001Z,101533.19
2022-08-22T12:41:46.510Z,101534.50
2022-08-22T12:44:34.425Z,101525.72
2022-08-22T12:47:17.339Z,101540.81
2022-08-22T12:50:02.918Z,101538.47
2022-08-22T12:52:40.984Z,101540.41
2022-08-22T12:55:20.130Z,101536.03
2022-08-22T12:58:11.543Z,101525.53
2022-08-22T13:00:45.164Z,101533.88
2022-08-22T13:03:29.809Z,101518.63
2022-08-22T13:06:00.305Z,101520.16
2022-08-22T13:08:37.011Z,101515.25
2022-08-22T13:11:15.120Z,101513.16
2022-08-22T13:14:00.930Z,101511.22
2022-08-22T13:16:49.129Z,101512.72
2022-08-22T13:19:24.153Z,101514.50
2022-08-22T13:22:02.755Z,101517.91
2022-08-22T13:24:57.157Z,101517.94
2022-08-22T13:27:30.756Z,101518.75
2022-08-22T13:30:02.407Z,101524.75
2022-08-22T13:32:45.036Z,101516.25
2022-08-22T13:35:44.703Z,101514.81
2022-08-22T13:38:39.138Z,101517.97
2022-08-22T13:41:24.533Z,101510.75
2022-08-22T13:44:15.297Z,101513.59
2022-08-22T13:47:13.067Z,101527.31
2022-08-22T13:49:40.068Z,101521.66
2022-08-22T13:52:38.563Z,101528.94
2022-08-22T13:55:12.637Z,101535.38
2022-08-22T13:57:45.718Z,101524.19
2022-08-22T14:00:29.141Z,101528.19
2022-08-22T14:03:08.070Z,101526.88
2022-08-22T14:05:44.753Z,101524.34
2022-08-22T14:08:19.999Z,101521.59
2022-08-22T14:10:57.962Z,101522.38
2022-08-22T14:13:50.529Z,101509.44
2022-08-22T14:16:27.301Z,101511.97
2022-08-22T14:19:06.140Z,101509.03
2022-08-22T14:21:47.464Z,101511.31
2022-08-22T14:24:25.886Z,101510.53
2022-08-22T14:27:00.042Z,101503.66
2022-08-22T14:29:51.474Z,101496.06
2022-08-22T14:32:22.653Z,101503.34
2022-08-22T14:35:05.943Z,101498.63
2022-08-22T14:37:42.142Z,101495.94
2022-08-22T14:40:17.899Z,101497.41
2022-08-22T14:42:47.637Z,101489.19
2022-08-22T14:45:22.332Z,101490.47
2022-08-22T14:48:30.196Z,101487.91
2022-08-22T14:50:56.859Z,101488.59
2022-08-22T14:53:26.578Z,101475.03
2022-08-22T14:56:01.033Z,101477.59
2022-08-22T14:58:31.435Z,101475.28
2022-08-22T15:01:10.006Z,101476.03
2022-08-22T15:03:40.383Z,101476.16
2022-08-22T15:06:29.323Z,101466.69
2022-08-22T15:08:57.633Z,101465.91
2022-08-22T15:11:31.897Z,101468.81
2022-08-22T15:14:08.462Z,101469.69
2022-08-22T15:16:45.357Z,101467.38
2022-08-22T15:19:27.379Z,101466.63
2022-08-22T15:22:07.865Z,101468.34
2022-08-22T15:24:41.403Z,101467.81
2022-08-22T15:27:10.573Z,101469.00
2022-08-22T15:29:50.993Z,101480.66
2022-08-22T15:32:23.952Z,101476.84
2022-08-22T15:35:04.297Z,101472.56
2022-08-22T15:37:35.016Z,101470.34
2022-08-22T15:40:11.683Z,101477.22
2022-08-22T15:42:44.157Z,101475.31
2022-08-22T15:45:33.841Z,101469.53
2022-08-22T15:48:04.469Z,101462.56
2022-08-22T15:50:38.808Z,101473.28
2022-08-22T15:53:19.713Z,101468.72
2022-08-22T15:56:16.746Z,101461.91
2022-08-22T15:58:49.245Z,101472.97
2022-08-22T16:01:22.209Z,101465.50
2022-08-22T16:04:14.507Z,101467.34
2022-08-22T16:06:49.150Z,101462.72
2022-08-22T16:09:43.510Z,101474.38
2022-08-22T16:12:24.582Z,101456.94
2022-08-22T16:14:52.507Z,101462.69
2022-08-22T16:17:28.756Z,101453.25
2022-08-22T16:20:07.745Z,101449.47
2022-08-22T16:23:00.283Z,101463.91
2022-08-22T16:25:48.170Z,101459.31
2022-08-22T16:29:05.783Z,101451.63
2022-08-22T16:31:58.967Z,101461.47
2022-08-22T16:34:37.912Z,101460.22
2022-08-22T16:37:14.953Z,101460.56
2022-08-22T16:39:48.715Z,101453.94
2022-08-22T16:42:15.867Z,101455.47
2022-08-22T16:45:05.780Z,101466.78
2022-08-22T16:47:32.766Z,101456.28
2022-08-22T16:50:24.054Z,101467.44
2022-08-22T16:52:54.207Z,101468.22
2022-08-22T16:55:30.200Z,101474.00
2022-08-22T16:58:06.391Z,101468.97
2022-08-22T17:00:36.977Z,101473.97
2022-08-22T17:03:11.738Z,101474.00
2022-08-22T17:06:23.922Z,101473.47
2022-08-22T17:09:14.461Z,101471.94
2022-08-22T17:11:56.504Z,101474.03
2022-08-22T17:14:41.863Z,101472.06
2022-08-22T17:17:16.662Z,101476.75
2022-08-22T17:19:53.059Z,101479.16
2022-08-22T17:22:38.449Z,101476.09
2022-08-22T17:25:20.841Z,101473.75
2022-08-22T17:28:04.427Z,101479.72
2022-08-22T17:30:40.995Z,101478.69
2022-08-22T17:33:20.226Z,101474.88
2022-08-22T17:36:26.837Z,101478.84
2022-08-22T17:39:33.234Z,101470.22
2022-08-22T17:42:22.060Z,101476.75
2022-08-22T17:45:23.405Z,101481.97
2022-08-22T17:48:02.565Z,101489.13
2022-08-22T17:50:54.949Z,101484.41
2022-08-22T17:53:32.805Z,101479.34
2022-08-22T17:56:16.783Z,101481.38
2022-08-22T17:59:20.987Z,101493.28
2022-08-22T18:01:59.495Z,101502.47
2022-08-22T18:04:43.361Z,101497.72
2022-08-22T18:07:14.031Z,101502.47
2022-08-22T18:10:04.592Z,101495.38
2022-08-22T18:12:40.609Z,101505.66
2022-08-22T18:15:43.512Z,101519.06
2022-08-22T18:18:30.293Z,101514.34
2022-08-22T18:21:11.678Z,101520.28
2022-08-22T18:23:51.361Z,101522.25
2022-08-22T18:26:29.297Z,101518.31
2022-08-22T18:35:16.193Z,101534.09
2022-08-22T18:38:25.794Z,101547.06
2022-08-22T18:41:04.793Z,101535.63
2022-08-22T18:43:40.309Z,101549.38
2022-08-22T18:46:31.783Z,101551.72
2022-08-22T18:49:15.033Z,101554.44
2022-08-22T18:51:43.194Z,101550.84
2022-08-22T18:54:13.818Z,101561.84
2022-08-22T18:57:00.370Z,101565.78
2022-08-22T18:59:43.074Z,101567.75
2022-08-22T19:02:37.586Z,101572.00
2022-08-22T19:05:31.346Z,101576.31
2022-08-22T19:08:04.673Z,101571.91
2022-08-22T19:10:45.256Z,101579.41
2022-08-22T19:13:25.175Z,101578.16
2022-08-22T19:16:34.015Z,101578.84
2022-08-22T19:19:17.077Z,101582.34
2022-08-22T19:22:21.862Z,101581.47
2022-08-22T19:25:10.846Z,101593.28
2022-08-22T19:28:02.862Z,101588.06
2022-08-22T19:31:18.720Z,101586.00
2022-08-22T19:33:49.840Z,101590.25
2022-08-22T19:36:33.068Z,101588.53
2022-08-22T19:39:09.144Z,101595.31
2022-08-22T19:41:54.535Z,101597.63
2022-08-22T19:44:21.610Z,101598.41
2022-08-22T19:47:00.859Z,101598.34
2022-08-22T19:49:36.182Z,101601.75
2022-08-22T19:52:13.571Z,101600.41
2022-08-22T19:55:05.805Z,101604.25
2022-08-22T19:57:56.214Z,101594.78
2022-08-22T20:00:30.831Z,101594.66
2022-08-22T20:03:38.130Z,101601.72
2022-08-22T20:06:42.940Z,101604.69
2022-08-22T20:09:39.025Z,101605.28
2022-08-22T20:12:22.527Z,101603.75
2022-08-22T20:14:50.051Z,101606.78
2022-08-22T20:17:33.056Z,101606.72
2022-08-22T20:20:35.102Z,101607.66
2022-08-22T20:23:09.111Z,101609.75
2022-08-22T20:28:31.445Z,101613.06
2022-08-22T20:31:01.567Z,101607.84
2022-08-22T20:33:36.913Z,101604.94
2022-08-22T20:36:18.486Z,101609.19
2022-08-22T20:39:00.445Z,101602.69
2022-08-22T20:41:36.041Z,101602.69
2022-08-22T20:44:06.214Z,101604.09
2022-08-22T20:47:01.876Z,101608.91
2022-08-22T20:49:47.048Z,101602.50
2022-08-22T20:52:39.452Z,101601.25
2022-08-22T20:55:31.322Z,101599.22
2022-08-22T21:00:48.115Z,101601.00
2022-08-22T21:03:48.982Z,101599.41
2022-08-22T21:06:29.750Z,101594.94
2022-08-22T21:09:00.004Z,101604.34
2022-08-22T21:11:49.857Z,101603.09
2022-08-22T21:14:19.322Z,101595.94
2022-08-22T21:16:49.192Z,101597.03
2022-08-22T21:19:50.903Z,101598.63
2022-08-22T21:22:19.928Z,101602.03
2022-08-22T21:24:59.749Z,101609.31
2022-08-22T21:27:27.992Z,101605.00
2022-08-22T21:29:55.540Z,101603.34
2022-08-22T21:35:19.324Z,101604.91
2022-08-22T21:37:46.996Z,101612.00
2022-08-22T21:46:39.847Z,101617.25
2022-08-22T21:49:07.917Z,101620.63
2022-08-22T21:51:47.021Z,101617.50
2022-08-22T21:54:26.318Z,101612.59
2022-08-22T21:56:58.734Z,101612.84
2022-08-22T21:59:50.622Z,101613.63
2022-08-22T22:02:40.368Z,101622.41
2022-08-22T22:05:16.002Z,101617.38
2022-08-22T22:07:46.526Z,101622.84
2022-08-22T22:10:17.193Z,101619.22
2022-08-22T22:12:47.538Z,101625.25
2022-08-22T22:15:19.181Z,101614.97
2022-08-22T22:17:46.376Z,101622.97
2022-08-22T22:20:16.369Z,101634.72
2022-08-22T22:22:46.648Z,101626.84
2022-08-22T22:25:38.844Z,101634.78
2022-08-22T22:28:10.693Z,101638.28
2022-08-22T22:30:37.918Z,101628.69
2022-08-22T22:33:05.069Z,101629.69
2022-08-22T22:35:32.645Z,101622.84
2022-08-22T22:37:59.916Z,101620.97
2022-08-22T22:40:27.137Z,101620.44
2022-08-22T22:42:54.481Z,101627.03
2022-08-22T22:45:21.641Z,101628.13
2022-08-22T22:47:48.729Z,101621.84
2022-08-22T22:50:16.035Z,101628.03
2022-08-22T22:52:43.104Z,101618.88
2022-08-22T22:55:10.428Z,101625.50
2022-08-22T22:57:42.355Z,101616.19
2022-08-22T23:00:12.782Z,101618.22
2022-08-22T23:02:40.148Z,101609.38
2022-08-22T23:05:09.647Z,101611.31
2022-08-22T23:07:37.453Z,101612.56
2022-08-22T23:10:07.148Z,101620.22
2022-08-22T23:12:36.434Z,101615.81
2022-08-22T23:15:06.036Z,101615.72
2022-08-22T23:17:34.303Z,101608.75
2022-08-22T23:20:01.867Z,101621.38
2022-08-22T23:22:30.523Z,101612.34
2022-08-22T23:24:57.708Z,101616.44
2022-08-22T23:27:25.130Z,101610.53
2022-08-22T23:29:52.650Z,101604.97
2022-08-22T23:32:20.075Z,101597.72
2022-08-22T23:34:48.795Z,101603.28
2022-08-22T23:37:22.580Z,101603.63
2022-08-22T23:39:53.179Z,101589.97
2022-08-22T23:42:20.442Z,101598.19
2022-08-22T23:44:47.809Z,101593.63
2022-08-22T23:47:15.383Z,101597.72
2022-08-22T23:49:42.855Z,101603.56
2022-08-22T23:52:12.273Z,101599.13
2022-08-22T23:54:39.654Z,101595.13
2022-08-22T23:57:11.464Z,101594.38
2022-08-22T23:59:46.375Z,101588.75
